Time;durP1;ratioP1;P1;durP2;ratioP2;P2;SDS_P1;SDS_P2;PMS_P1;PMS_P2;Temp;Humidity;BMP_temperature;BMP_pressure;BME280_temperature;BME280_humidity;BME280_pressure;Samples;Min_cycle;Max_cycle;Signal;HPM_P1;HPM_P2
2023/10/28 04:30:59;;;;;;;0.10;0.10;;;10.80;94.60;;;;;;5696092;23;20038;-85
2023/10/28 04:33:26;;;;;;;0.10;0.10;;;10.80;94.70;;;;;;5009569;28;20030;-85
2023/10/28 04:35:53;;;;;;;0.10;0.10;;;10.80;94.60;;;;;;4995578;28;20168;-84
2023/10/28 04:38:22;;;;;;;0.20;0.10;;;10.80;94.60;;;;;;4996472;28;20022;-84
2023/10/28 04:40:49;;;;;;;0.10;0.10;;;10.80;94.50;;;;;;5001974;28;20029;-84
2023/10/28 04:43:15;;;;;;;0.10;0.10;;;10.90;94.60;;;;;;4998827;28;20067;-85
2023/10/28 04:45:44;;;;;;;0.10;0.10;;;10.80;94.60;;;;;;4998877;28;20026;-85
2023/10/28 04:48:10;;;;;;;0.20;0.20;;;10.90;94.60;;;;;;5016511;28;20105;-85
2023/10/28 04:50:36;;;;;;;0.10;0.10;;;10.90;94.60;;;;;;4991813;28;20503;-85
2023/10/28 04:53:02;;;;;;;0.10;0.10;;;10.90;94.50;;;;;;4996697;28;20136;-85
2023/10/28 04:55:28;;;;;;;0.20;0.20;;;11.00;94.40;;;;;;4997801;28;20038;-85
2023/10/28 04:57:54;;;;;;;0.10;0.10;;;10.90;94.50;;;;;;4982558;28;20038;-85
2023/10/28 05:00:20;;;;;;;0.10;0.10;;;11.00;94.60;;;;;;5000829;28;20058;-85
2023/10/28 05:02:46;;;;;;;0.17;0.17;;;11.00;94.60;;;;;;5003681;28;20029;-85
2023/10/28 05:05:13;;;;;;;0.10;0.10;;;10.90;94.40;;;;;;5002544;28;20037;-85
2023/10/28 05:07:40;;;;;;;0.10;0.10;;;10.90;94.50;;;;;;4996044;28;20029;-85
2023/10/28 05:10:06;;;;;;;0.20;0.20;;;11.00;94.50;;;;;;5000182;28;20030;-84
2023/10/28 05:12:32;;;;;;;0.20;0.20;;;10.90;94.50;;;;;;4982907;28;20033;-84
2023/10/28 05:14:59;;;;;;;0.10;0.10;;;11.00;94.60;;;;;;4999924;28;20062;-85
2023/10/28 05:17:27;;;;;;;0.10;0.10;;;11.10;94.60;;;;;;4982285;28;20019;-86
2023/10/28 05:19:53;;;;;;;0.15;0.10;;;11.10;94.50;;;;;;4983381;28;20436;-85
2023/10/28 05:22:19;;;;;;;0.10;0.10;;;11.10;94.50;;;;;;5007764;28;20022;-85
2023/10/28 05:24:45;;;;;;;0.10;0.10;;;11.10;94.40;;;;;;5002061;28;20076;-85
2023/10/28 05:27:10;;;;;;;0.10;0.10;;;11.10;94.60;;;;;;5015561;28;20021;-86
2023/10/28 05:29:36;;;;;;;0.20;0.20;;;11.20;94.60;;;;;;5007919;28;20555;-85
2023/10/28 05:32:02;;;;;;;0.10;0.10;;;11.20;94.40;;;;;;5002127;28;20046;-86
2023/10/28 05:34:28;;;;;;;0.10;0.10;;;11.20;94.70;;;;;;4998634;28;20036;-85
2023/10/28 05:36:53;;;;;;;0.20;0.20;;;11.20;94.50;;;;;;5001809;28;20506;-85
2023/10/28 05:39:22;;;;;;;0.15;0.15;;;11.20;94.30;;;;;;5026497;28;20033;-85
2023/10/28 05:41:50;;;;;;;0.10;0.10;;;11.20;94.40;;;;;;5001713;28;20037;-84
2023/10/28 05:44:17;;;;;;;0.10;0.10;;;11.20;94.40;;;;;;4999350;28;20030;-86
2023/10/28 05:46:44;;;;;;;0.13;0.13;;;11.20;94.50;;;;;;4981976;28;20505;-86
2023/10/28 05:49:12;;;;;;;0.10;0.10;;;11.20;94.40;;;;;;4998562;28;20098;-85
2023/10/28 05:51:38;;;;;;;0.10;0.10;;;11.20;94.50;;;;;;5000960;28;20121;-85
2023/10/28 05:54:04;;;;;;;0.10;0.10;;;11.20;94.50;;;;;;5019072;28;20494;-85
2023/10/28 05:56:30;;;;;;;0.10;0.10;;;11.20;94.50;;;;;;5001269;28;20552;-83
2023/10/28 05:58:58;;;;;;;0.10;0.10;;;11.20;94.30;;;;;;5018022;28;20026;-83
2023/10/28 06:01:24;;;;;;;0.10;0.10;;;11.10;94.40;;;;;;5017316;28;20108;-82
2023/10/28 06:03:50;;;;;;;0.20;0.20;;;11.10;94.50;;;;;;5013875;28;20030;-81
2023/10/28 06:06:15;;;;;;;0.10;0.10;;;11.20;94.60;;;;;;5017750;28;20029;-77
2023/10/28 06:08:41;;;;;;;0.10;0.10;;;11.20;94.50;;;;;;5018025;28;20379;-77
2023/10/28 06:11:09;;;;;;;0.10;0.10;;;11.20;94.40;;;;;;5001958;28;20108;-77
2023/10/28 06:13:35;;;;;;;0.10;0.10;;;11.20;94.40;;;;;;4998733;28;20046;-78
2023/10/28 06:16:01;;;;;;;0.10;0.10;;;11.20;94.40;;;;;;4999209;28;20367;-78
2023/10/28 06:18:26;;;;;;;0.20;0.20;;;11.20;94.60;;;;;;4998789;28;20077;-76
2023/10/28 06:20:52;;;;;;;0.10;0.10;;;11.20;94.50;;;;;;4999547;28;20027;-77
2023/10/28 06:23:18;;;;;;;0.10;0.10;;;11.30;94.40;;;;;;4980709;28;20038;-76
2023/10/28 06:25:43;;;;;;;0.10;0.10;;;11.20;94.40;;;;;;4998678;28;21041;-78
2023/10/28 06:28:10;;;;;;;0.10;0.10;;;11.20;94.40;;;;;;4998274;28;20101;-76
2023/10/28 06:30:37;;;;;;;0.10;0.10;;;11.20;94.50;;;;;;4977985;28;20049;-76
2023/10/28 06:33:02;;;;;;;0.10;0.10;;;11.20;94.50;;;;;;4984880;28;20034;-77
2023/10/28 06:35:28;;;;;;;0.20;0.20;;;11.20;94.30;;;;;;4995181;28;20023;-76
2023/10/28 06:37:54;;;;;;;0.10;0.10;;;11.20;94.40;;;;;;4987324;28;20030;-76
2023/10/28 06:40:20;;;;;;;0.10;0.10;;;11.20;94.40;;;;;;4994178;28;20375;-76
2023/10/28 06:42:45;;;;;;;0.10;0.10;;;11.20;94.40;;;;;;4987045;28;20113;-76
2023/10/28 06:45:11;;;;;;;0.10;0.10;;;11.20;94.50;;;;;;4989206;28;20030;-76
2023/10/28 06:47:37;;;;;;;0.10;0.10;;;11.20;94.40;;;;;;4990669;28;20397;-76
2023/10/28 06:50:06;;;;;;;0.10;0.10;;;11.20;94.40;;;;;;4980973;28;20019;-77
2023/10/28 06:52:32;;;;;;;0.10;0.10;;;11.20;94.40;;;;;;4980300;28;20100;-76
2023/10/28 06:54:59;;;;;;;0.10;0.10;;;11.20;94.30;;;;;;4980079;28;20027;-77
2023/10/28 06:57:26;;;;;;;0.10;0.10;;;11.10;94.30;;;;;;4997887;28;20405;-78
2023/10/28 06:59:52;;;;;;;0.10;0.10;;;11.20;94.30;;;;;;4997853;28;20046;-78
2023/10/28 07:02:19;;;;;;;0.10;0.10;;;11.20;94.40;;;;;;4989707;28;20054;-78
2023/10/28 07:04:45;;;;;;;0.10;0.10;;;11.20;94.40;;;;;;4997637;28;20022;-77
2023/10/28 07:07:14;;;;;;;0.10;0.10;;;11.20;94.40;;;;;;4993334;28;20041;-77
2023/10/28 07:09:40;;;;;;;0.17;0.17;;;11.20;94.40;;;;;;4997578;28;20464;-76
2023/10/28 07:12:06;;;;;;;0.15;0.10;;;11.20;94.30;;;;;;4979614;28;20042;-76
2023/10/28 07:14:32;;;;;;;0.10;0.10;;;11.30;94.20;;;;;;4977022;28;20471;-76
2023/10/28 07:16:59;;;;;;;0.15;0.15;;;11.30;94.20;;;;;;4984170;28;20031;-76
2023/10/28 07:19:24;;;;;;;0.10;0.10;;;11.30;94.20;;;;;;4974867;28;20022;-78
2023/10/28 07:21:50;;;;;;;0.10;0.10;;;11.30;94.20;;;;;;4992276;28;20044;-77
2023/10/28 07:24:16;;;;;;;0.13;0.13;;;11.40;94.30;;;;;;4997291;28;20022;-77
2023/10/28 07:26:42;;;;;;;0.20;0.20;;;11.50;94.20;;;;;;4991809;28;20054;-77
2023/10/28 07:29:08;;;;;;;0.10;0.10;;;11.50;94.30;;;;;;4985057;28;20026;-84
2023/10/28 07:31:38;;;;;;;0.10;0.10;;;11.50;94.20;;;;;;4984263;28;20093;-81
2023/10/28 07:34:07;;;;;;;0.10;0.10;;;11.50;94.20;;;;;;4994430;28;20548;-79
2023/10/28 07:36:33;;;;;;;0.10;0.10;;;11.60;94.20;;;;;;4994820;28;20058;-82
2023/10/28 07:39:01;;;;;;;0.10;0.10;;;11.60;94.10;;;;;;4997897;28;20017;-81
2023/10/28 07:41:29;;;;;;;0.22;0.20;;;11.70;94.10;;;;;;4995942;28;20097;-80
2023/10/28 07:43:56;;;;;;;0.10;0.10;;;11.70;94.10;;;;;;4994105;28;20023;-79
2023/10/28 07:46:22;;;;;;;0.10;0.10;;;11.80;94.00;;;;;;4995671;28;20033;-80
2023/10/28 07:48:48;;;;;;;0.10;0.10;;;11.70;93.80;;;;;;4991507;28;20046;-78
2023/10/28 07:51:17;;;;;;;0.10;0.10;;;11.80;94.00;;;;;;4990852;28;20718;-79
2023/10/28 07:53:44;;;;;;;0.10;0.10;;;11.80;93.90;;;;;;4988826;28;20073;-80
2023/10/28 07:56:10;;;;;;;0.10;0.10;;;11.80;93.90;;;;;;5009461;28;20117;-78
2023/10/28 07:58:36;;;;;;;0.10;0.10;;;11.90;94.00;;;;;;4999704;28;20062;-79
2023/10/28 08:01:03;;;;;;;0.10;0.10;;;11.90;93.90;;;;;;4982970;28;20025;-78
2023/10/28 08:03:30;;;;;;;0.10;0.10;;;12.00;93.90;;;;;;4984775;28;20041;-77
2023/10/28 08:05:56;;;;;;;0.17;0.10;;;12.00;93.80;;;;;;4996700;28;20022;-77
2023/10/28 08:08:21;;;;;;;0.10;0.10;;;12.10;93.90;;;;;;4993227;28;20076;-82
2023/10/28 08:10:48;;;;;;;0.10;0.10;;;12.10;93.90;;;;;;4991641;28;20030;-87
2023/10/28 08:13:14;;;;;;;0.10;0.10;;;12.20;94.00;;;;;;4994793;28;20037;-85
2023/10/28 08:15:39;;;;;;;0.10;0.10;;;12.30;93.90;;;;;;4995491;28;20034;-86
2023/10/28 08:18:05;;;;;;;0.10;0.10;;;12.30;93.80;;;;;;4992423;28;20034;-84
2023/10/28 08:20:30;;;;;;;0.00;0.00;;;12.30;93.70;;;;;;4993776;28;20029;-90
2023/10/28 08:22:56;;;;;;;0.10;0.10;;;12.40;93.80;;;;;;4995281;28;20022;-85
2023/10/28 08:25:22;;;;;;;0.10;0.10;;;12.40;93.70;;;;;;4995023;28;20022;-82
2023/10/28 08:27:48;;;;;;;0.10;0.10;;;12.50;93.80;;;;;;4995129;28;20022;-83
2023/10/28 08:30:19;;;;;;;0.20;0.20;;;12.60;93.80;;;;;;4971184;28;20042;-82
2023/10/28 08:32:45;;;;;;;0.10;0.10;;;12.70;93.80;;;;;;5014336;28;20042;-82
2023/10/28 08:35:10;;;;;;;0.10;0.10;;;12.70;93.80;;;;;;4992613;28;20091;-83
2023/10/28 08:37:36;;;;;;;0.10;0.10;;;12.70;93.80;;;;;;5001684;28;20029;-83
2023/10/28 08:40:06;;;;;;;0.10;0.10;;;12.80;93.80;;;;;;5021421;28;20021;-83
2023/10/28 08:42:34;;;;;;;0.10;0.10;;;12.80;93.80;;;;;;5017658;28;20029;-82
2023/10/28 08:45:03;;;;;;;0.10;0.10;;;12.80;93.80;;;;;;5001606;28;20025;-82
2023/10/28 08:47:32;;;;;;;0.10;0.10;;;12.80;93.80;;;;;;4995171;28;20559;-81
2023/10/28 08:50:00;;;;;;;0.10;0.10;;;12.90;93.80;;;;;;5012118;28;20113;-82
2023/10/28 08:52:29;;;;;;;0.10;0.10;;;12.90;93.70;;;;;;5019591;28;20076;-82
2023/10/28 08:54:57;;;;;;;0.10;0.10;;;13.00;93.70;;;;;;5019084;28;20477;-82
2023/10/28 08:57:23;;;;;;;0.10;0.10;;;13.00;93.70;;;;;;5014353;28;20436;-82
2023/10/28 08:59:50;;;;;;;0.10;0.10;;;13.10;93.70;;;;;;4995534;28;20034;-81
2023/10/28 09:02:19;;;;;;;0.10;0.10;;;13.10;93.60;;;;;;5008018;28;20046;-82
2023/10/28 09:04:45;;;;;;;0.10;0.10;;;13.20;93.60;;;;;;5016869;28;20026;-82
2023/10/28 09:07:11;;;;;;;0.10;0.10;;;13.20;93.60;;;;;;5000098;28;20030;-78
2023/10/28 09:09:39;;;;;;;0.10;0.10;;;13.30;93.40;;;;;;5001837;28;20037;-88
2023/10/28 09:12:07;;;;;;;0.10;0.10;;;13.30;93.40;;;;;;4996881;28;20081;-80
2023/10/28 09:14:33;;;;;;;0.17;0.17;;;13.40;93.30;;;;;;4985531;28;20045;-78
2023/10/28 09:17:02;;;;;;;0.10;0.10;;;13.50;93.20;;;;;;5004918;28;20030;-79
2023/10/28 09:19:29;;;;;;;0.10;0.10;;;13.60;93.10;;;;;;4999768;28;20093;-76
2023/10/28 09:21:55;;;;;;;0.10;0.10;;;13.50;92.90;;;;;;5012408;28;20064;-76
2023/10/28 09:24:22;;;;;;;0.10;0.10;;;13.60;93.00;;;;;;5010577;28;20045;-76
2023/10/28 09:26:50;;;;;;;0.10;0.10;;;13.70;92.70;;;;;;5005338;28;20064;-75
2023/10/28 09:29:24;;;;;;;0.13;0.10;;;13.70;92.70;;;;;;5013457;28;20022;-76
2023/10/28 09:31:50;;;;;;;0.10;0.10;;;13.70;92.70;;;;;;4998394;28;20057;-75
2023/10/28 09:34:16;;;;;;;0.05;0.05;;;13.80;92.40;;;;;;4988120;28;20034;-75
2023/10/28 09:36:42;;;;;;;0.10;0.10;;;13.80;92.40;;;;;;4991908;28;20023;-75
2023/10/28 09:39:13;;;;;;;0.10;0.10;;;13.80;92.30;;;;;;4988571;28;20035;-75
2023/10/28 09:41:39;;;;;;;0.10;0.10;;;13.80;92.30;;;;;;4987122;28;20528;-75
2023/10/28 09:44:10;;;;;;;0.10;0.10;;;13.70;92.20;;;;;;4986396;28;20105;-75
2023/10/28 09:46:37;;;;;;;0.10;0.10;;;13.70;92.10;;;;;;4985602;28;20026;-75
2023/10/28 09:49:07;;;;;;;0.10;0.10;;;13.60;91.60;;;;;;4987337;28;20540;-75
2023/10/28 09:51:36;;;;;;;0.10;0.10;;;13.60;91.80;;;;;;4987550;28;20082;-75
2023/10/28 09:54:08;;;;;;;0.10;0.10;;;13.50;92.00;;;;;;4992608;28;20037;-75
2023/10/28 09:56:37;;;;;;;0.10;0.10;;;13.50;91.90;;;;;;4995862;28;20106;-77
2023/10/28 09:59:12;;;;;;;0.10;0.10;;;13.50;92.20;;;;;;4979289;28;20022;-77
2023/10/28 10:01:50;;;;;;;0.10;0.10;;;13.50;92.00;;;;;;4978905;28;20030;-76
2023/10/28 10:04:35;;;;;;;0.10;0.10;;;13.60;92.10;;;;;;4989664;28;20045;-85
2023/10/28 10:07:03;;;;;;;0.10;0.10;;;13.60;92.30;;;;;;4983931;28;20019;-78
2023/10/28 10:09:40;;;;;;;0.10;0.10;;;13.50;92.10;;;;;;4990925;28;20022;-77
2023/10/28 10:12:06;;;;;;;0.10;0.10;;;13.60;92.40;;;;;;4986765;28;20121;-79
2023/10/28 10:14:33;;;;;;;0.10;0.10;;;13.70;92.40;;;;;;4994610;28;20034;-77
2023/10/28 10:17:37;;;;;;;0.10;0.10;;;13.80;92.40;;;;;;4982002;28;20058;-80
2023/10/28 10:20:06;;;;;;;0.00;0.00;;;13.80;92.30;;;;;;4990958;28;20027;-78
2023/10/28 10:22:35;;;;;;;0.13;0.10;;;13.80;92.10;;;;;;4986681;28;20035;-79
2023/10/28 10:25:01;;;;;;;0.10;0.10;;;13.80;92.20;;;;;;4985126;28;20019;-79
2023/10/28 10:27:47;;;;;;;0.10;0.10;;;13.80;92.20;;;;;;4991806;28;20061;-78
2023/10/28 10:30:13;;;;;;;0.10;0.10;;;13.80;92.20;;;;;;4991100;28;20142;-79
2023/10/28 10:32:48;;;;;;;0.10;0.10;;;13.80;92.20;;;;;;5008200;28;20034;-79
2023/10/28 10:35:27;;;;;;;0.05;0.05;;;13.70;92.20;;;;;;5005953;28;20041;-78
2023/10/28 10:38:11;;;;;;;0.10;0.10;;;13.70;92.30;;;;;;5011884;28;20053;-79
2023/10/28 10:40:46;;;;;;;0.13;0.13;;;13.70;92.30;;;;;;5009443;28;20040;-79
2023/10/28 10:43:12;;;;;;;0.10;0.10;;;13.70;92.40;;;;;;4987428;28;20041;-80
2023/10/28 10:45:37;;;;;;;0.10;0.10;;;13.70;92.50;;;;;;5003969;28;20417;-77
2023/10/28 10:48:07;;;;;;;0.10;0.10;;;13.70;92.40;;;;;;5013958;28;20041;-77
2023/10/28 10:50:35;;;;;;;0.10;0.10;;;13.80;92.50;;;;;;4999721;28;20022;-77
2023/10/28 10:53:03;;;;;;;0.10;0.10;;;13.70;92.50;;;;;;4998577;28;20030;-76
2023/10/28 10:55:30;;;;;;;0.03;0.03;;;13.70;92.50;;;;;;4987638;28;20034;-76
2023/10/28 10:57:56;;;;;;;0.17;0.17;;;13.70;92.60;;;;;;4989463;28;20040;-79
2023/10/28 11:00:23;;;;;;;0.20;0.20;;;13.70;92.50;;;;;;4989590;28;20023;-80
2023/10/28 11:02:49;;;;;;;0.13;0.13;;;13.80;92.60;;;;;;4997574;28;20029;-77
2023/10/28 11:05:17;;;;;;;0.10;0.10;;;13.90;92.60;;;;;;4998371;28;20037;-77
2023/10/28 11:07:43;;;;;;;0.15;0.15;;;13.90;92.40;;;;;;4998441;28;20111;-77
2023/10/28 11:10:09;;;;;;;0.10;0.10;;;13.90;92.50;;;;;;5006084;28;20433;-76
2023/10/28 11:12:36;;;;;;;0.10;0.10;;;13.90;92.40;;;;;;4991363;28;20058;-78
2023/10/28 11:15:03;;;;;;;0.10;0.10;;;14.00;92.40;;;;;;5005720;28;20026;-79
2023/10/28 11:17:30;;;;;;;0.10;0.10;;;14.00;92.40;;;;;;5017330;28;20080;-78
2023/10/28 11:19:58;;;;;;;0.10;0.10;;;14.00;92.40;;;;;;5010584;28;20026;-77
2023/10/28 11:22:25;;;;;;;0.10;0.10;;;14.00;92.40;;;;;;4997879;28;20420;-81
2023/10/28 11:24:57;;;;;;;0.10;0.10;;;13.90;92.70;;;;;;4997026;28;20532;-86
2023/10/28 11:27:27;;;;;;;0.10;0.10;;;13.90;92.70;;;;;;4977138;28;20027;-76
2023/10/28 11:29:56;;;;;;;0.10;0.10;;;13.90;92.70;;;;;;4998726;28;21683;-78
2023/10/28 11:32:22;;;;;;;0.10;0.10;;;13.90;92.60;;;;;;4995928;28;20084;-79
2023/10/28 11:34:48;;;;;;;0.10;0.10;;;13.90;92.70;;;;;;4983439;28;20035;-79
2023/10/28 11:37:14;;;;;;;0.10;0.10;;;14.00;92.70;;;;;;5005778;28;20030;-78
2023/10/28 11:39:42;;;;;;;0.10;0.10;;;14.00;92.60;;;;;;5003999;28;20026;-78
2023/10/28 11:42:14;;;;;;;0.15;0.15;;;14.20;92.60;;;;;;5006334;28;20078;-78
2023/10/28 11:44:40;;;;;;;0.20;0.20;;;14.20;92.40;;;;;;5005650;28;20125;-79
2023/10/28 11:47:07;;;;;;;0.10;0.10;;;14.30;92.30;;;;;;4990104;28;20477;-78
2023/10/28 11:49:33;;;;;;;0.15;0.15;;;14.30;92.20;;;;;;5008640;28;20076;-78
2023/10/28 11:52:00;;;;;;;0.10;0.10;;;14.20;92.30;;;;;;4988924;28;20120;-78
2023/10/28 11:54:25;;;;;;;0.10;0.10;;;14.20;92.30;;;;;;5003403;28;20437;-78
2023/10/28 11:56:51;;;;;;;0.10;0.10;;;14.20;92.30;;;;;;5004657;28;20034;-78
2023/10/28 11:59:17;;;;;;;0.10;0.10;;;14.20;92.20;;;;;;5004108;28;20026;-78
2023/10/28 12:01:43;;;;;;;0.10;0.10;;;14.00;92.20;;;;;;4999354;28;20081;-78
2023/10/28 12:04:08;;;;;;;0.10;0.10;;;14.00;92.20;;;;;;4998333;28;20026;-78
2023/10/28 12:06:35;;;;;;;0.10;0.10;;;14.10;92.30;;;;;;5015994;28;20034;-78
2023/10/28 12:09:04;;;;;;;0.10;0.10;;;14.00;92.10;;;;;;5005678;28;20021;-78
2023/10/28 12:11:31;;;;;;;0.10;0.10;;;14.00;91.90;;;;;;5016266;28;20032;-78
2023/10/28 12:13:57;;;;;;;0.10;0.10;;;14.20;92.00;;;;;;5019445;28;20034;-79
2023/10/28 12:16:23;;;;;;;0.10;0.10;;;14.20;91.90;;;;;;5017322;28;20033;-78
2023/10/28 12:18:49;;;;;;;0.10;0.10;;;14.20;91.80;;;;;;5020174;28;20017;-77
2023/10/28 12:21:17;;;;;;;0.10;0.10;;;14.10;91.80;;;;;;5008367;28;20045;-79
2023/10/28 12:23:47;;;;;;;0.10;0.10;;;14.20;91.90;;;;;;5012315;28;20366;-78
2023/10/28 12:26:13;;;;;;;0.10;0.10;;;14.20;91.80;;;;;;5019030;28;20022;-78
2023/10/28 12:28:39;;;;;;;0.10;0.10;;;14.30;91.90;;;;;;5011114;28;20018;-78
2023/10/28 12:31:04;;;;;;;0.10;0.10;;;14.30;91.80;;;;;;5005637;28;20516;-78
2023/10/28 12:33:30;;;;;;;0.10;0.10;;;14.20;91.70;;;;;;4992419;28;20394;-78
2023/10/28 12:35:57;;;;;;;0.10;0.10;;;14.30;91.80;;;;;;4992211;28;20027;-78
2023/10/28 12:38:22;;;;;;;0.10;0.10;;;14.30;91.70;;;;;;4994469;28;20059;-78
2023/10/28 12:40:48;;;;;;;0.10;0.10;;;14.40;91.80;;;;;;4997602;28;20090;-78
2023/10/28 12:43:14;;;;;;;0.20;0.20;;;14.40;91.70;;;;;;4991435;28;20038;-78
2023/10/28 12:45:40;;;;;;;0.20;0.20;;;14.40;91.80;;;;;;4992179;28;20551;-78
2023/10/28 12:48:05;;;;;;;0.10;0.10;;;14.50;91.90;;;;;;4992157;28;20046;-79
2023/10/28 12:50:31;;;;;;;0.13;0.13;;;14.60;91.80;;;;;;4991527;28;20050;-78
2023/10/28 12:52:57;;;;;;;0.20;0.20;;;14.70;91.80;;;;;;4994077;28;20061;-79
2023/10/28 12:55:24;;;;;;;0.10;0.10;;;14.70;91.70;;;;;;4992336;28;20018;-81
2023/10/28 12:57:50;;;;;;;0.10;0.10;;;14.90;91.70;;;;;;4992817;28;20037;-80
2023/10/28 13:00:17;;;;;;;0.10;0.10;;;15.10;91.50;;;;;;4991906;28;20046;-81
2023/10/28 13:02:48;;;;;;;0.20;0.17;;;15.20;91.30;;;;;;4993392;28;20027;-81
2023/10/28 13:05:14;;;;;;;0.10;0.10;;;15.20;91.10;;;;;;4994040;28;20019;-79
2023/10/28 13:07:40;;;;;;;0.10;0.10;;;15.20;91.10;;;;;;4995068;28;20033;-80
2023/10/28 13:10:06;;;;;;;0.15;0.15;;;15.10;91.00;;;;;;5015132;28;20053;-81
2023/10/28 13:12:32;;;;;;;0.10;0.10;;;15.10;91.00;;;;;;4994627;28;20022;-82
2023/10/28 13:14:57;;;;;;;0.10;0.10;;;15.10;90.90;;;;;;4999384;28;20029;-83
2023/10/28 13:17:26;;;;;;;0.10;0.10;;;15.20;91.00;;;;;;5011282;28;20054;-85
2023/10/28 13:19:57;;;;;;;0.20;0.10;;;15.10;90.90;;;;;;4991250;28;20102;-85
2023/10/28 13:22:23;;;;;;;0.20;0.17;;;15.00;90.90;;;;;;4989507;28;20398;-81
2023/10/28 13:24:48;;;;;;;0.13;0.13;;;15.00;91.00;;;;;;4990953;28;20109;-80
2023/10/28 13:27:15;;;;;;;0.10;0.10;;;15.00;91.10;;;;;;4988317;28;20026;-81
2023/10/28 13:29:56;;;;;;;0.30;0.25;;;15.00;91.20;;;;;;4989541;28;20018;-84
2023/10/28 13:32:22;;;;;;;0.10;0.10;;;14.90;91.40;;;;;;4992432;28;20072;-81
2023/10/28 13:34:47;;;;;;;0.17;0.17;;;14.90;91.40;;;;;;5010379;28;21532;-80
2023/10/28 13:37:13;;;;;;;0.10;0.10;;;14.90;91.40;;;;;;5009941;28;20109;-83
2023/10/28 13:39:38;;;;;;;0.10;0.10;;;14.80;91.30;;;;;;5011075;28;20054;-79
2023/10/28 13:42:04;;;;;;;0.10;0.10;;;14.80;91.20;;;;;;5010494;28;20088;-82
2023/10/28 13:44:30;;;;;;;0.10;0.10;;;14.70;91.20;;;;;;5007736;28;20084;-83
2023/10/28 13:46:56;;;;;;;0.03;0.03;;;14.70;91.20;;;;;;5009516;28;20100;-82
2023/10/28 13:49:23;;;;;;;0.13;0.13;;;14.70;91.30;;;;;;4987751;28;20025;-79
2023/10/28 13:51:49;;;;;;;0.10;0.10;;;14.70;91.30;;;;;;5011799;28;20509;-80
2023/10/28 13:54:15;;;;;;;0.10;0.10;;;14.70;91.60;;;;;;5008788;28;20090;-79
2023/10/28 13:56:41;;;;;;;0.10;0.10;;;14.60;91.80;;;;;;5009843;28;20033;-81
2023/10/28 13:59:06;;;;;;;0.10;0.10;;;14.60;91.90;;;;;;5007143;28;20026;-81
2023/10/28 14:01:33;;;;;;;0.10;0.10;;;14.50;92.00;;;;;;4992231;28;20065;-78
2023/10/28 14:04:00;;;;;;;0.10;0.10;;;14.50;92.20;;;;;;5007996;28;20018;-80
2023/10/28 14:06:26;;;;;;;0.17;0.17;;;14.50;92.20;;;;;;5008245;28;20923;-82
2023/10/28 14:08:52;;;;;;;0.10;0.10;;;14.50;92.30;;;;;;5008396;28;20022;-82
2023/10/28 14:11:22;;;;;;;0.10;0.10;;;14.40;92.60;;;;;;4992785;28;20121;-81
2023/10/28 14:13:48;;;;;;;0.10;0.10;;;14.40;92.60;;;;;;5008697;28;20015;-82
2023/10/28 14:16:24;;;;;;;0.10;0.10;;;14.40;92.60;;;;;;5009058;28;20038;-83
2023/10/28 14:18:51;;;;;;;0.10;0.10;;;14.40;92.70;;;;;;4991039;28;20022;-82
2023/10/28 14:21:19;;;;;;;0.10;0.10;;;14.40;92.60;;;;;;5009374;28;20034;-78
2023/10/28 14:23:45;;;;;;;0.10;0.10;;;14.40;92.50;;;;;;5009576;28;20030;-81
2023/10/28 14:26:10;;;;;;;0.03;0.03;;;14.40;92.40;;;;;;4989672;28;20559;-81
2023/10/28 14:28:36;;;;;;;0.10;0.10;;;14.40;92.30;;;;;;5007081;28;20137;-82
2023/10/28 14:31:02;;;;;;;0.10;0.10;;;14.40;92.50;;;;;;4987689;28;20040;-82
2023/10/28 14:33:28;;;;;;;0.10;0.10;;;14.40;92.50;;;;;;5003521;28;20057;-82
2023/10/28 14:35:56;;;;;;;0.10;0.10;;;14.40;92.40;;;;;;5008115;28;20038;-83
2023/10/28 14:41:33;;;;;;;0.10;0.10;;;14.40;92.30;;;;;;4994285;28;20092;-83
2023/10/28 14:43:59;;;;;;;0.10;0.10;;;14.40;92.40;;;;;;5010322;28;20025;-82
2023/10/28 14:46:26;;;;;;;0.10;0.10;;;14.40;92.30;;;;;;5009597;28;20037;-82
2023/10/28 14:48:53;;;;;;;0.10;0.10;;;14.40;92.30;;;;;;5008148;28;20745;-82
2023/10/28 14:51:21;;;;;;;0.10;0.10;;;14.30;92.30;;;;;;4988897;28;20028;-80
2023/10/28 14:53:47;;;;;;;0.10;0.10;;;14.30;92.30;;;;;;5009486;28;20046;-82
2023/10/28 14:56:13;;;;;;;0.10;0.10;;;14.30;92.20;;;;;;5009430;28;20465;-83
2023/10/28 14:58:39;;;;;;;0.10;0.10;;;14.30;92.30;;;;;;4985172;28;20097;-82
2023/10/28 15:01:09;;;;;;;0.10;0.10;;;14.30;92.20;;;;;;5002635;28;20019;-81
2023/10/28 15:03:36;;;;;;;0.10;0.10;;;14.30;92.00;;;;;;4999049;28;20397;-82
2023/10/28 15:06:04;;;;;;;0.10;0.10;;;14.40;92.10;;;;;;5012826;28;20023;-83
2023/10/28 15:08:30;;;;;;;0.10;0.10;;;14.40;92.10;;;;;;5007842;28;20033;-81
2023/10/28 15:10:56;;;;;;;0.10;0.10;;;14.50;91.80;;;;;;5011788;28;20034;-81
2023/10/28 15:13:22;;;;;;;0.10;0.10;;;14.50;91.70;;;;;;4989926;28;20030;-81
2023/10/28 15:15:47;;;;;;;0.00;0.00;;;14.50;91.60;;;;;;5005883;28;20026;-79
2023/10/28 15:18:13;;;;;;;0.10;0.10;;;14.60;91.60;;;;;;4986581;28;20030;-81
2023/10/28 15:20:39;;;;;;;0.10;0.10;;;14.50;91.40;;;;;;5009682;28;20113;-83
2023/10/28 15:23:09;;;;;;;0.10;0.10;;;14.50;91.50;;;;;;4995745;28;20034;-79
2023/10/28 15:25:36;;;;;;;0.10;0.10;;;14.50;91.50;;;;;;5000187;28;20036;-79
2023/10/28 15:28:02;;;;;;;0.10;0.10;;;14.40;91.30;;;;;;4999298;28;20110;-78
2023/10/28 15:30:27;;;;;;;0.10;0.10;;;14.50;91.50;;;;;;4997726;28;20130;-78
2023/10/28 15:32:53;;;;;;;0.00;0.00;;;14.40;91.20;;;;;;4997503;28;20027;-77
2023/10/28 15:35:19;;;;;;;0.10;0.10;;;14.30;91.00;;;;;;4998419;28;20121;-77
2023/10/28 15:37:46;;;;;;;0.10;0.10;;;14.20;91.00;;;;;;5003242;28;20034;-76
2023/10/28 15:40:20;;;;;;;0.10;0.10;;;14.20;90.90;;;;;;5012200;28;20031;-78
2023/10/28 15:42:49;;;;;;;0.10;0.10;;;14.20;91.10;;;;;;5005544;28;20088;-77
2023/10/28 15:45:15;;;;;;;0.10;0.10;;;14.20;91.20;;;;;;5005939;28;20506;-77
2023/10/28 15:47:40;;;;;;;0.10;0.10;;;14.30;91.00;;;;;;5005154;28;20091;-77
2023/10/28 15:50:06;;;;;;;0.10;0.10;;;14.30;91.10;;;;;;5003295;28;20571;-78
2023/10/28 15:52:33;;;;;;;0.10;0.10;;;14.30;90.90;;;;;;5006863;28;20385;-76
2023/10/28 15:54:59;;;;;;;0.20;0.20;;;14.20;90.80;;;;;;5006711;28;20041;-77
2023/10/28 15:57:26;;;;;;;0.10;0.10;;;14.20;90.80;;;;;;5006042;28;20055;-77
2023/10/28 15:59:51;;;;;;;0.10;0.10;;;14.20;90.70;;;;;;5008004;28;20392;-77
2023/10/28 16:02:18;;;;;;;0.10;0.10;;;14.30;90.90;;;;;;5005203;28;20221;-78
2023/10/28 16:04:44;;;;;;;0.10;0.10;;;14.30;90.70;;;;;;5007187;28;20030;-76
2023/10/28 16:07:09;;;;;;;0.10;0.10;;;14.30;90.80;;;;;;5002282;28;20482;-76
2023/10/28 16:09:38;;;;;;;0.10;0.10;;;14.30;90.70;;;;;;5004910;28;20096;-76
2023/10/28 16:12:05;;;;;;;0.10;0.10;;;14.30;90.60;;;;;;5007136;28;20018;-77
2023/10/28 16:14:32;;;;;;;0.10;0.10;;;14.20;90.50;;;;;;5004515;28;20026;-76
2023/10/28 16:16:58;;;;;;;0.10;0.10;;;14.30;90.70;;;;;;5005784;28;20173;-76
2023/10/28 16:19:24;;;;;;;0.10;0.10;;;14.30;90.60;;;;;;5006794;28;20026;-76
2023/10/28 16:21:50;;;;;;;0.10;0.10;;;14.30;90.70;;;;;;5006309;28;20038;-76
2023/10/28 16:24:16;;;;;;;0.10;0.10;;;14.30;90.50;;;;;;4990268;28;20113;-76
2023/10/28 16:26:46;;;;;;;0.10;0.10;;;14.20;90.70;;;;;;5002489;28;20034;-79
2023/10/28 16:29:13;;;;;;;0.10;0.10;;;14.20;90.80;;;;;;4998069;28;20682;-79
2023/10/28 16:31:38;;;;;;;0.10;0.10;;;14.10;90.40;;;;;;4997558;28;20034;-77
2023/10/28 16:34:04;;;;;;;0.10;0.10;;;14.10;90.70;;;;;;5007071;28;20405;-77
2023/10/28 16:36:30;;;;;;;0.10;0.10;;;14.10;90.70;;;;;;4988325;28;20022;-77
2023/10/28 16:38:55;;;;;;;0.10;0.10;;;14.10;91.00;;;;;;5010635;28;20049;-79
2023/10/28 16:41:21;;;;;;;0.10;0.10;;;14.10;90.80;;;;;;5004191;28;20026;-84
2023/10/28 16:43:47;;;;;;;0.10;0.10;;;14.10;91.10;;;;;;5001569;28;20499;-78
2023/10/28 16:46:15;;;;;;;0.10;0.10;;;14.10;91.00;;;;;;5006067;28;20018;-81
2023/10/28 16:48:40;;;;;;;0.10;0.10;;;14.10;91.30;;;;;;4989007;28;20041;-79
2023/10/28 16:51:14;;;;;;;0.10;0.10;;;14.10;91.00;;;;;;5008801;28;20022;-78
2023/10/28 16:53:41;;;;;;;0.05;0.05;;;14.00;91.30;;;;;;5009475;28;20189;-79
2023/10/28 16:56:07;;;;;;;0.10;0.10;;;14.10;91.40;;;;;;5006513;28;20792;-79
2023/10/28 16:58:36;;;;;;;0.10;0.10;;;14.10;91.60;;;;;;5004220;28;20161;-78
2023/10/28 17:01:04;;;;;;;0.10;0.10;;;14.20;91.70;;;;;;5002328;28;20048;-78
2023/10/28 17:03:30;;;;;;;0.10;0.10;;;14.20;91.70;;;;;;5010655;28;20038;-79
2023/10/28 17:05:56;;;;;;;0.10;0.10;;;14.30;91.70;;;;;;5012181;28;20025;-78
2023/10/28 17:08:22;;;;;;;0.10;0.10;;;14.40;91.70;;;;;;5008939;28;20030;-78
2023/10/28 17:10:48;;;;;;;0.10;0.10;;;14.40;91.60;;;;;;5000845;28;20037;-77
2023/10/28 17:13:14;;;;;;;0.10;0.10;;;14.40;91.50;;;;;;5019014;28;20450;-83
2023/10/28 17:15:40;;;;;;;0.10;0.10;;;14.50;91.40;;;;;;5001013;28;20096;-79
2023/10/28 17:18:05;;;;;;;0.10;0.10;;;14.50;91.40;;;;;;4998082;28;20034;-77
2023/10/28 17:20:31;;;;;;;0.10;0.10;;;14.50;91.20;;;;;;4999528;28;20053;-78